Time,TemperatureF,DewpointF,PressureIn,WindDirection,WindDirectionDegrees,WindSpeedMPH,WindSpeedGustMPH,Humidity,HourlyPrecipIn,Conditions,Clouds,dailyrainin,SoftwareType,DateUTC
2013-03-12 00:00:00,41.9,37.7,30.12,South,182,2.0,6.0,85,0.00,,,0.00,Wunderground v.1.15,2013-03-12 04:00:00,
2013-03-12 00:05:00,41.8,37.6,30.12,South,175,2.0,6.0,85,0.00,,,0.00,Wunderground v.1.15,2013-03-12 04:05:00,
2013-03-12 00:10:00,41.3,37.1,30.11,South,171,2.0,2.0,85,0.00,,,0.00,Wunderground v.1.15,2013-03-12 04:10:00,
2013-03-12 00:15:00,41.2,37.3,30.10,SSW,201,3.0,3.0,86,0.00,,,0.00,Wunderground v.1.15,2013-03-12 04:15:00,
2013-03-12 00:20:00,41.2,37.9,30.10,WSW,246,3.0,3.0,88,0.00,,,0.00,Wunderground v.1.15,2013-03-12 04:20:00,
2013-03-12 00:30:00,40.8,37.2,30.11,SSE,149,3.0,3.0,87,0.00,,,0.00,Wunderground v.1.15,2013-03-12 04:30:00,
2013-03-12 00:35:00,40.8,37.8,30.11,SSW,207,2.0,3.0,89,0.00,,,0.00,Wunderground v.1.15,2013-03-12 04:35:00,
2013-03-12 00:40:00,40.6,37.3,30.11,NW,306,3.0,3.0,88,0.00,,,0.00,Wunderground v.1.15,2013-03-12 04:40:00,
2013-03-12 00:45:00,40.5,37.2,30.11,ESE,104,3.0,4.0,88,0.00,,,0.00,Wunderground v.1.15,2013-03-12 04:45:00,
2013-03-12 00:55:00,41.3,38.0,30.10,East,84,4.0,4.0,88,0.00,,,0.00,Wunderground v.1.15,2013-03-12 04:55:00,
2013-03-12 01:00:00,41.8,38.5,30.09,SSE,167,4.0,4.0,88,0.00,,,0.00,Wunderground v.1.15,2013-03-12 05:00:00,
2013-03-12 01:10:00,42.5,38.6,30.09,ESE,113,4.0,4.0,86,0.00,,,0.00,Wunderground v.1.15,2013-03-12 05:10:00,
2013-03-12 01:15:00,42.3,38.1,30.09,SSW,202,3.0,4.0,85,0.00,,,0.00,Wunderground v.1.15,2013-03-12 05:15:00,
2013-03-12 01:20:00,41.9,38.0,30.10,ESE,105,2.0,2.0,86,0.00,,,0.00,Wunderground v.1.15,2013-03-12 05:20:00,
2013-03-12 01:30:00,41.6,38.3,30.10,SSW,210,3.0,3.0,88,0.00,,,0.00,Wunderground v.1.15,2013-03-12 05:30:00,
2013-03-12 01:35:00,41.6,38.6,30.10,SSE,163,3.0,3.0,89,0.00,,,0.00,Wunderground v.1.15,2013-03-12 05:35:00,
2013-03-12 01:40:00,41.9,38.6,30.09,SSE,159,2.0,2.0,88,0.00,,,0.00,Wunderground v.1.15,2013-03-12 05:40:00,
2013-03-12 01:50:00,42.1,38.8,30.09,SSE,152,2.0,2.0,88,0.00,,,0.00,Wunderground v.1.15,2013-03-12 05:50:00,
2013-03-12 01:55:00,42.1,38.2,30.08,South,189,2.0,2.0,86,0.00,,,0.00,Wunderground v.1.15,2013-03-12 05:55:00,
2013-03-12 02:00:00,41.9,38.6,30.08,SE,132,2.0,7.0,88,0.00,,,0.00,Wunderground v.1.15,2013-03-12 06:00:00,
2013-03-12 02:10:00,41.8,38.8,30.08,SE,137,2.0,2.0,89,0.00,,,0.00,Wunderground v.1.15,2013-03-12 06:10:00,
2013-03-12 02:15:00,41.5,38.2,30.09,SE,138,1.0,2.0,88,0.00,,,0.00,Wunderground v.1.15,2013-03-12 06:15:00,
2013-03-12 02:20:00,41.1,38.4,30.08,ESE,120,1.0,2.0,90,0.00,,,0.00,Wunderground v.1.15,2013-03-12 06:20:00,
2013-03-12 02:25:00,40.9,38.2,30.08,SSW,207,1.0,2.0,90,0.00,,,0.00,Wunderground v.1.15,2013-03-12 06:25:00,
2013-03-12 02:35:00,40.8,38.7,30.07,SSE,148,2.0,4.0,92,0.00,,,0.00,Wunderground v.1.15,2013-03-12 06:35:00,
2013-03-12 02:40:00,41.1,39.0,30.07,ESE,105,3.0,3.0,92,0.00,,,0.00,Wunderground v.1.15,2013-03-12 06:40:00,
2013-03-12 02:45:00,41.5,39.6,30.07,ESE,117,2.0,3.0,93,0.00,,,0.00,Wunderground v.1.15,2013-03-12 06:45:00,
2013-03-12 02:55:00,42.2,40.0,30.07,South,190,2.0,4.0,92,0.00,,,0.00,Wunderground v.1.15,2013-03-12 06:55:00,
2013-03-12 03:00:00,42.3,39.9,30.07,ESE,113,3.0,3.0,91,0.00,,,0.00,Wunderground v.1.15,2013-03-12 07:00:00,
2013-03-12 03:05:00,42.2,40.0,30.06,ESE,112,2.0,3.0,92,0.00,,,0.00,Wunderground v.1.15,2013-03-12 07:05:00,
2013-03-12 03:15:00,41.9,39.7,30.06,SE,130,2.0,3.0,92,0.00,,,0.00,Wunderground v.1.15,2013-03-12 07:15:00,
2013-03-12 03:20:00,42.3,40.7,30.06,SE,130,2.0,2.0,94,0.00,,,0.00,Wunderground v.1.15,2013-03-12 07:20:00,
2013-03-12 03:30:00,42.6,40.7,30.05,East,95,3.0,5.0,93,0.00,,,0.00,Wunderground v.1.15,2013-03-12 07:30:00,
2013-03-12 03:35:00,42.8,41.2,30.05,ESE,108,2.0,5.0,94,0.00,,,0.00,Wunderground v.1.15,2013-03-12 07:35:00,
2013-03-12 03:40:00,42.6,40.7,30.05,SE,143,2.0,2.0,93,0.00,,,0.00,Wunderground v.1.15,2013-03-12 07:40:00,
2013-03-12 03:45:00,42.3,40.4,30.05,East,100,2.0,2.0,93,0.00,,,0.00,Wunderground v.1.15,2013-03-12 07:45:00,
2013-03-12 03:55:00,41.8,39.6,30.05,ENE,72,1.0,1.0,92,0.00,,,0.00,Wunderground v.1.15,2013-03-12 07:55:00,
2013-03-12 04:00:00,41.5,39.6,30.04,East,101,1.0,1.0,93,0.00,,,0.00,Wunderground v.1.15,2013-03-12 08:00:00,
2013-03-12 04:10:00,40.8,38.7,30.03,SE,131,1.0,2.0,92,0.00,,,0.00,Wunderground v.1.15,2013-03-12 08:10:00,
2013-03-12 04:20:00,40.3,38.4,30.03,SSW,198,2.0,4.0,93,0.00,,,0.00,Wunderground v.1.15,2013-03-12 08:20:00,
2013-03-12 04:25:00,40.3,38.4,30.04,SSE,150,1.0,4.0,93,0.00,,,0.00,Wunderground v.1.15,2013-03-12 08:25:00,
2013-03-12 04:30:00,40.1,38.2,30.04,SSE,162,0.0,4.0,93,0.00,,,0.00,Wunderground v.1.15,2013-03-12 08:30:00,
2013-03-12 04:40:00,39.9,37.8,30.04,South,189,0.0,1.0,92,0.00,,,0.00,Wunderground v.1.15,2013-03-12 08:40:00,
2013-03-12 04:45:00,39.6,38.0,30.03,South,189,0.0,1.0,94,0.00,,,0.00,Wunderground v.1.15,2013-03-12 08:45:00,
2013-03-12 04:50:00,39.5,37.6,30.03,South,189,0.0,0.0,93,0.00,,,0.00,Wunderground v.1.15,2013-03-12 08:50:00,
2013-03-12 05:00:00,39.3,37.7,30.02,SSE,153,0.0,0.0,94,0.00,,,0.00,Wunderground v.1.15,2013-03-12 09:00:00,
2013-03-12 05:05:00,39.6,38.3,30.02,ESE,117,1.0,1.0,95,0.00,,,0.00,Wunderground v.1.15,2013-03-12 09:05:00,
2013-03-12 05:10:00,39.3,37.7,30.02,SW,215,2.0,2.0,94,0.00,,,0.00,Wunderground v.1.15,2013-03-12 09:10:00,
2013-03-12 05:20:00,39.1,37.5,30.03,ESE,114,1.0,1.0,94,0.00,,,0.00,Wunderground v.1.15,2013-03-12 09:20:00,
2013-03-12 05:25:00,39.1,37.5,30.03,ESE,114,1.0,1.0,94,0.00,,,0.00,Wunderground v.1.15,2013-03-12 09:25:00,
2013-03-12 05:30:00,39.1,37.5,30.03,South,183,0.0,2.0,94,0.00,,,0.00,Wunderground v.1.15,2013-03-12 09:30:00,
2013-03-12 05:35:00,39.3,38.0,30.03,East,90,1.0,2.0,95,0.00,,,0.00,Wunderground v.1.15,2013-03-12 09:35:00,
2013-03-12 05:45:00,39.8,38.8,30.03,ENE,68,1.0,2.0,96,0.00,,,0.00,Wunderground v.1.15,2013-03-12 09:45:00,
2013-03-12 05:50:00,40.2,39.2,30.03,East,81,1.0,1.0,96,0.00,,,0.00,Wunderground v.1.15,2013-03-12 09:50:00,
2013-03-12 06:00:00,40.5,39.4,30.03,SE,136,1.0,2.0,96,0.00,,,0.00,Wunderground v.1.15,2013-03-12 10:00:00,
2013-03-12 06:05:00,41.1,40.3,30.03,SSW,203,2.0,3.0,97,0.00,,,0.00,Wunderground v.1.15,2013-03-12 10:05:00,
2013-03-12 06:15:00,40.8,39.7,30.03,South,171,1.0,3.0,96,0.00,,,0.00,Wunderground v.1.15,2013-03-12 10:15:00,
2013-03-12 06:20:00,40.8,39.7,30.02,ESE,120,2.0,2.0,96,0.00,,,0.00,Wunderground v.1.15,2013-03-12 10:20:00,
2013-03-12 06:25:00,41.1,40.0,30.02,East,82,2.0,3.0,96,0.00,,,0.00,Wunderground v.1.15,2013-03-12 10:25:00,
2013-03-12 06:35:00,41.8,41.0,30.01,East,98,3.0,6.0,97,0.00,,,0.00,Wunderground v.1.15,2013-03-12 10:35:00,
2013-03-12 06:40:00,41.9,41.1,30.01,ESE,107,3.0,7.0,97,0.00,,,0.00,Wunderground v.1.15,2013-03-12 10:40:00,
2013-03-12 06:45:00,42.1,41.3,30.01,ESE,109,2.0,7.0,97,0.00,,,0.00,Wunderground v.1.15,2013-03-12 10:45:00,
2013-03-12 06:50:00,41.8,40.5,30.01,SW,227,1.0,1.0,95,0.00,,,0.00,Wunderground v.1.15,2013-03-12 10:50:00,
2013-03-12 07:00:00,41.5,40.4,30.01,SE,137,1.0,2.0,96,0.00,,,0.00,Wunderground v.1.15,2013-03-12 11:00:00,
2013-03-12 07:05:00,41.2,39.3,30.01,South,186,1.0,2.0,93,0.00,,,0.00,Wunderground v.1.15,2013-03-12 11:05:00,
2013-03-12 07:15:00,40.3,38.7,30.01,SSE,148,0.0,1.0,94,0.00,,,0.00,Wunderground v.1.15,2013-03-12 11:15:00,
2013-03-12 07:20:00,39.8,37.7,30.01,SSE,149,0.0,0.0,92,0.00,,,0.00,Wunderground v.1.15,2013-03-12 11:20:00,
2013-03-12 07:25:00,39.5,37.6,30.01,ESE,108,0.0,0.0,93,0.00,,,0.00,Wunderground v.1.15,2013-03-12 11:25:00,
2013-03-12 07:35:00,39.2,37.9,30.01,SSW,202,2.0,2.0,95,0.00,,,0.00,Wunderground v.1.15,2013-03-12 11:35:00,
2013-03-12 07:40:00,39.1,37.8,30.01,SSE,165,1.0,1.0,95,0.00,,,0.00,Wunderground v.1.15,2013-03-12 11:40:00,
2013-03-12 07:45:00,39.2,38.2,30.01,South,190,1.0,1.0,96,0.00,,,0.00,Wunderground v.1.15,2013-03-12 11:45:00,
2013-03-12 07:50:00,39.5,38.5,30.00,East,97,1.0,1.0,96,0.00,,,0.00,Wunderground v.1.15,2013-03-12 11:50:00,
2013-03-12 08:00:00,39.8,39.0,30.01,SSE,163,1.0,1.0,97,0.00,,,0.00,Wunderground v.1.15,2013-03-12 12:00:00,
2013-03-12 08:05:00,39.8,38.8,30.00,SSE,163,1.0,1.0,96,0.00,,,0.00,Wunderground v.1.15,2013-03-12 12:05:00,
2013-03-12 08:15:00,39.5,38.2,30.01,SW,235,0.0,1.0,95,0.00,,,0.00,Wunderground v.1.15,2013-03-12 12:15:00,
2013-03-12 08:20:00,39.1,37.5,30.00,SW,235,1.0,2.0,94,0.00,,,0.00,Wunderground v.1.15,2013-03-12 12:20:00,
2013-03-12 08:25:00,38.8,37.5,30.00,SW,223,0.0,2.0,95,0.00,,,0.00,Wunderground v.1.15,2013-03-12 12:25:00,
2013-03-12 08:35:00,38.9,37.9,30.00,SW,223,0.0,1.0,96,0.00,,,0.00,Wunderground v.1.15,2013-03-12 12:35:00,
2013-03-12 08:40:00,38.8,37.8,30.00,WSW,240,0.0,2.0,96,0.00,,,0.00,Wunderground v.1.15,2013-03-12 12:40:00,
2013-03-12 08:45:00,38.8,37.8,30.00,ESE,109,1.0,5.0,96,0.00,,,0.00,Wunderground v.1.15,2013-03-12 12:45:00,
2013-03-12 08:50:00,39.2,38.4,30.00,South,180,1.0,1.0,97,0.00,,,0.00,Wunderground v.1.15,2013-03-12 12:50:00,
2013-03-12 09:00:00,39.9,39.4,30.00,East,101,1.0,2.0,98,0.00,,,0.00,Wunderground v.1.15,2013-03-12 13:00:00,
2013-03-12 09:05:00,40.5,40.2,30.00,ESE,122,2.0,2.0,99,0.00,,,0.00,Wunderground v.1.15,2013-03-12 13:05:00,
2013-03-12 09:15:00,41.8,41.5,30.00,SE,146,2.0,7.0,99,0.00,,,0.00,Wunderground v.1.15,2013-03-12 13:15:00,
2013-03-12 09:20:00,42.1,41.8,30.00,ESE,118,2.0,2.0,99,0.00,,,0.00,Wunderground v.1.15,2013-03-12 13:20:00,
2013-03-12 09:25:00,42.3,42.0,30.00,ESE,107,2.0,2.0,99,0.00,,,0.00,Wunderground v.1.15,2013-03-12 13:25:00,
2013-03-12 09:30:00,43.1,42.8,29.99,SE,136,3.0,3.0,99,0.00,,,0.00,Wunderground v.1.15,2013-03-12 13:30:00,
2013-03-12 09:40:00,44.1,43.8,29.99,East,94,3.0,3.0,99,0.00,,,0.00,Wunderground v.1.15,2013-03-12 13:40:00,
2013-03-12 09:45:00,44.1,43.8,29.99,SE,139,2.0,3.0,99,0.00,,,0.00,Wunderground v.1.15,2013-03-12 13:45:00,
2013-03-12 09:50:00,43.8,43.3,29.99,SE,130,2.0,2.0,98,0.00,,,0.01,Wunderground v.1.15,2013-03-12 13:50:00,
2013-03-12 09:55:00,43.9,43.4,29.99,ESE,122,2.0,3.0,98,0.00,,,0.01,Wunderground v.1.15,2013-03-12 13:55:00,
2013-03-12 10:05:00,44.3,44.0,29.99,SSE,161,3.0,3.0,99,0.04,,,0.02,Wunderground v.1.15,2013-03-12 14:05:00,
2013-03-12 10:10:00,44.6,44.3,29.98,ESE,106,3.0,3.0,99,0.04,,,0.02,Wunderground v.1.15,2013-03-12 14:10:00,
2013-03-12 10:20:00,44.9,44.6,29.98,South,171,2.0,5.0,99,0.05,,,0.03,Wunderground v.1.15,2013-03-12 14:20:00,
2013-03-12 10:25:00,44.6,44.3,29.98,SSE,163,3.0,5.0,99,0.05,,,0.03,Wunderground v.1.15,2013-03-12 14:25:00,
2013-03-12 10:30:00,44.8,44.5,29.98,ESE,113,2.0,2.0,99,0.04,,,0.03,Wunderground v.1.15,2013-03-12 14:30:00,
2013-03-12 10:35:00,44.6,44.3,29.97,SE,132,2.0,2.0,99,0.04,,,0.04,Wunderground v.1.15,2013-03-12 14:35:00,
2013-03-12 10:45:00,44.2,43.9,29.97,NNW,338,1.0,2.0,99,0.06,,,0.05,Wunderground v.1.15,2013-03-12 14:45:00,
2013-03-12 10:50:00,44.5,44.2,29.97,ESE,111,2.0,5.0,99,0.06,,,0.05,Wunderground v.1.15,2013-03-12 14:50:00,
2013-03-12 11:00:00,44.3,44.0,29.97,ENE,66,2.0,2.0,99,0.04,,,0.06,Wunderground v.1.15,2013-03-12 15:00:00,
2013-03-12 11:05:00,44.6,44.6,29.96,ESE,123,1.0,2.0,100,0.04,,,0.06,Wunderground v.1.15,2013-03-12 15:05:00,
2013-03-12 11:10:00,44.8,44.8,29.96,ESE,107,1.0,1.0,100,0.05,,,0.07,Wunderground v.1.15,2013-03-12 15:10:00,
2013-03-12 11:20:00,44.2,43.9,29.95,SSE,164,1.0,1.0,99,0.05,,,0.07,Wunderground v.1.15,2013-03-12 15:20:00,
2013-03-12 11:25:00,44.5,44.5,29.96,WSW,248,1.0,1.0,100,0.04,,,0.08,Wunderground v.1.15,2013-03-12 15:25:00,
2013-03-12 11:30:00,44.8,44.8,29.95,SSW,200,1.0,3.0,100,0.04,,,0.08,Wunderground v.1.15,2013-03-12 15:30:00,
2013-03-12 11:40:00,45.5,45.5,29.95,East,100,2.0,2.0,100,0.00,,,0.09,Wunderground v.1.15,2013-03-12 15:40:00,
2013-03-12 11:45:00,46.0,46.0,29.94,North,5,1.0,2.0,100,0.00,,,0.09,Wunderground v.1.15,2013-03-12 15:45:00,
2013-03-12 11:55:00,45.8,45.8,29.94,WSW,238,1.0,3.0,100,0.00,,,0.09,Wunderground v.1.15,2013-03-12 15:55:00,
2013-03-12 12:00:00,46.0,46.0,29.94,SSW,194,2.0,2.0,100,0.00,,,0.09,Wunderground v.1.15,2013-03-12 16:00:00,
2013-03-12 12:10:00,46.1,46.1,29.94,SSE,148,2.0,2.0,100,0.00,,,0.09,Wunderground v.1.15,2013-03-12 16:10:00,
2013-03-12 12:15:00,46.8,46.8,29.93,SE,137,2.0,3.0,100,0.00,,,0.09,Wunderground v.1.15,2013-03-12 16:15:00,
2013-03-12 12:20:00,46.7,46.7,29.92,East,82,2.0,2.0,100,0.00,,,0.09,Wunderground v.1.15,2013-03-12 16:20:00,
2013-03-12 12:25:00,46.7,46.7,29.93,SSW,204,1.0,2.0,100,0.00,,,0.09,Wunderground v.1.15,2013-03-12 16:25:00,
2013-03-12 12:35:00,47.1,47.1,29.92,SE,138,2.0,2.0,100,0.00,,,0.09,Wunderground v.1.15,2013-03-12 16:35:00,
2013-03-12 12:40:00,47.0,47.0,29.92,East,99,2.0,2.0,100,0.00,,,0.09,Wunderground v.1.15,2013-03-12 16:40:00,
2013-03-12 12:45:00,47.0,47.0,29.92,SE,142,2.0,2.0,100,0.00,,,0.09,Wunderground v.1.15,2013-03-12 16:45:00,
2013-03-12 12:55:00,47.0,47.0,29.91,ESE,105,1.0,2.0,100,0.00,,,0.10,Wunderground v.1.15,2013-03-12 16:55:00,
2013-03-12 13:00:00,47.0,47.0,29.91,SE,135,2.0,3.0,100,0.00,,,0.10,Wunderground v.1.15,2013-03-12 17:00:00,
2013-03-12 13:05:00,47.0,47.0,29.91,East,94,2.0,3.0,100,0.00,,,0.10,Wunderground v.1.15,2013-03-12 17:05:00,
2013-03-12 13:15:00,47.0,47.0,29.91,South,184,2.0,3.0,100,0.00,,,0.10,Wunderground v.1.15,2013-03-12 17:15:00,
2013-03-12 13:20:00,46.7,46.7,29.90,SSW,203,2.0,3.0,100,0.00,,,0.10,Wunderground v.1.15,2013-03-12 17:20:00,
2013-03-12 13:25:00,47.0,47.0,29.90,ESE,108,2.0,3.0,100,0.00,,,0.10,Wunderground v.1.15,2013-03-12 17:25:00,
2013-03-12 13:35:00,47.9,47.9,29.90,SE,142,1.0,2.0,100,0.00,,,0.10,Wunderground v.1.15,2013-03-12 17:35:00,
2013-03-12 13:40:00,47.6,47.6,29.90,SE,135,2.0,2.0,100,0.00,,,0.10,Wunderground v.1.15,2013-03-12 17:40:00,
2013-03-12 13:50:00,47.7,47.7,29.89,SSW,197,2.0,3.0,100,0.00,,,0.11,Wunderground v.1.15,2013-03-12 17:50:00,
2013-03-12 13:55:00,47.6,47.6,29.89,SSE,155,2.0,3.0,100,0.00,,,0.11,Wunderground v.1.15,2013-03-12 17:55:00,
2013-03-12 14:05:00,47.7,47.7,29.88,ENE,74,2.0,5.0,100,0.05,,,0.12,Wunderground v.1.15,2013-03-12 18:05:00,
2013-03-12 14:10:00,47.7,47.7,29.88,SE,143,2.0,9.0,100,0.05,,,0.12,Wunderground v.1.15,2013-03-12 18:10:00,
2013-03-12 14:20:00,47.7,47.7,29.87,SE,136,3.0,3.0,100,0.05,,,0.13,Wunderground v.1.15,2013-03-12 18:20:00,
2013-03-12 14:25:00,47.9,47.9,29.87,South,180,2.0,4.0,100,0.06,,,0.14,Wunderground v.1.15,2013-03-12 18:25:00,
2013-03-12 14:30:00,47.7,47.7,29.87,SSE,157,2.0,2.0,100,0.06,,,0.14,Wunderground v.1.15,2013-03-12 18:30:00,
2013-03-12 14:35:00,48.2,48.2,29.86,ESE,107,2.0,2.0,100,0.05,,,0.15,Wunderground v.1.15,2013-03-12 18:35:00,
2013-03-12 14:45:00,48.0,48.0,29.86,ESE,120,2.0,2.0,100,0.05,,,0.16,Wunderground v.1.15,2013-03-12 18:45:00,
2013-03-12 14:50:00,48.3,48.3,29.85,South,186,2.0,2.0,100,0.05,,,0.16,Wunderground v.1.15,2013-03-12 18:50:00,
2013-03-12 14:55:00,48.2,48.2,29.85,East,101,2.0,3.0,100,0.05,,,0.16,Wunderground v.1.15,2013-03-12 18:55:00,
2013-03-12 15:05:00,47.7,47.7,29.84,East,98,3.0,3.0,100,0.00,,,0.16,Wunderground v.1.15,2013-03-12 19:05:00,
2013-03-12 15:10:00,47.6,47.6,29.84,South,169,2.0,2.0,100,0.00,,,0.17,Wunderground v.1.15,2013-03-12 19:10:00,
2013-03-12 15:20:00,47.6,47.6,29.83,SSW,211,2.0,2.0,100,0.00,,,0.17,Wunderground v.1.15,2013-03-12 19:20:00,
2013-03-12 15:25:00,47.7,47.7,29.83,SW,216,1.0,3.0,100,0.00,,,0.17,Wunderground v.1.15,2013-03-12 19:25:00,
2013-03-12 15:34:00,48.3,48.3,29.82,ESE,111,2.0,2.0,100,0.00,,,0.18,Wunderground v.1.15,2013-03-12 19:34:00,
2013-03-12 15:40:00,48.2,48.2,29.82,SSE,150,2.0,2.0,100,0.00,,,0.18,Wunderground v.1.15,2013-03-12 19:40:00,
2013-03-12 15:45:00,48.0,48.0,29.82,ESE,106,1.0,3.0,100,0.00,,,0.18,Wunderground v.1.15,2013-03-12 19:45:00,
2013-03-12 15:50:00,48.0,48.0,29.82,ESE,104,1.0,1.0,100,0.00,,,0.18,Wunderground v.1.15,2013-03-12 19:50:00,
2013-03-12 16:00:00,47.7,47.7,29.81,ESE,119,2.0,2.0,100,0.00,,,0.19,Wunderground v.1.15,2013-03-12 20:00:00,
2013-03-12 16:05:00,47.9,47.9,29.80,ESE,118,1.0,2.0,100,0.06,,,0.20,Wunderground v.1.15,2013-03-12 20:05:00,
2013-03-12 16:10:00,47.9,47.9,29.80,South,184,2.0,2.0,100,0.06,,,0.20,Wunderground v.1.15,2013-03-12 20:10:00,
2013-03-12 16:20:00,47.7,47.7,29.80,SSW,207,2.0,2.0,100,0.04,,,0.20,Wunderground v.1.15,2013-03-12 20:20:00,
2013-03-12 16:25:00,47.7,47.7,29.80,East,88,2.0,6.0,100,0.04,,,0.21,Wunderground v.1.15,2013-03-12 20:25:00,
2013-03-12 16:30:00,48.0,48.0,29.79,ESE,108,2.0,2.0,100,0.08,,,0.22,Wunderground v.1.15,2013-03-12 20:30:00,
2013-03-12 16:40:00,47.6,47.6,29.79,East,93,2.0,2.0,100,0.07,,,0.23,Wunderground v.1.15,2013-03-12 20:40:00,
2013-03-12 16:45:00,47.4,47.4,29.79,ESE,113,1.0,4.0,100,0.07,,,0.24,Wunderground v.1.15,2013-03-12 20:45:00,
2013-03-12 16:50:00,47.4,47.4,29.78,ESE,114,1.0,1.0,100,0.10,,,0.24,Wunderground v.1.15,2013-03-12 20:50:00,
2013-03-12 17:00:00,47.1,47.1,29.78,ESE,113,1.0,1.0,100,0.13,,,0.27,Wunderground v.1.15,2013-03-12 21:00:00,
2013-03-12 17:05:00,47.1,47.1,29.77,East,95,1.0,1.0,100,0.09,,,0.27,Wunderground v.1.15,2013-03-12 21:05:00,
2013-03-12 17:15:00,47.1,47.1,29.77,East,90,1.0,1.0,100,0.06,,,0.28,Wunderground v.1.15,2013-03-12 21:15:00,
2013-03-12 17:20:00,47.0,47.0,29.76,East,90,1.0,1.0,100,0.04,,,0.29,Wunderground v.1.15,2013-03-12 21:20:00,
2013-03-12 17:25:00,46.8,46.8,29.76,ESE,106,1.0,1.0,100,0.04,,,0.29,Wunderground v.1.15,2013-03-12 21:25:00,
2013-03-12 17:35:00,46.5,46.5,29.75,SE,126,0.0,1.0,100,0.17,,,0.31,Wunderground v.1.15,2013-03-12 21:35:00,
2013-03-12 17:40:00,46.4,46.4,29.75,SE,125,1.0,1.0,100,0.20,,,0.32,Wunderground v.1.15,2013-03-12 21:40:00,
2013-03-12 17:45:00,46.2,46.2,29.75,SE,125,1.0,3.0,100,0.14,,,0.33,Wunderground v.1.15,2013-03-12 21:45:00,
2013-03-12 17:55:00,46.8,46.8,29.74,ESE,117,2.0,3.0,100,0.17,,,0.36,Wunderground v.1.15,2013-03-12 21:55:00,
2013-03-12 18:00:00,46.8,46.8,29.74,ESE,103,2.0,2.0,100,0.26,,,0.38,Wunderground v.1.15,2013-03-12 22:00:00,
2013-03-12 18:05:00,47.4,47.4,29.74,East,93,2.0,5.0,100,0.22,,,0.41,Wunderground v.1.15,2013-03-12 22:05:00,
2013-03-12 18:15:00,47.4,47.4,29.73,SSE,163,2.0,2.0,100,0.23,,,0.45,Wunderground v.1.15,2013-03-12 22:15:00,
2013-03-12 18:20:00,47.4,47.4,29.73,SE,126,1.0,1.0,100,0.24,,,0.47,Wunderground v.1.15,2013-03-12 22:20:00,
2013-03-12 18:25:00,47.6,47.6,29.72,ENE,72,1.0,3.0,100,0.23,,,0.49,Wunderground v.1.15,2013-03-12 22:25:00,
2013-03-12 18:35:00,47.4,47.4,29.72,ESE,107,1.0,1.0,100,0.15,,,0.53,Wunderground v.1.15,2013-03-12 22:35:00,
2013-03-12 18:40:00,47.4,47.4,29.71,East,96,0.0,0.0,100,0.26,,,0.55,Wunderground v.1.15,2013-03-12 22:40:00,
2013-03-12 18:45:00,47.3,47.3,29.71,ESE,105,1.0,2.0,100,0.28,,,0.58,Wunderground v.1.15,2013-03-12 22:45:00,
2013-03-12 18:55:00,47.3,47.3,29.70,SE,127,1.0,1.0,100,0.14,,,0.60,Wunderground v.1.15,2013-03-12 22:55:00,
2013-03-12 19:00:00,46.8,46.8,29.70,SE,127,0.0,0.0,100,0.10,,,0.61,Wunderground v.1.15,2013-03-12 23:00:00,
2013-03-12 19:10:00,46.1,46.1,29.70,SSW,197,0.0,0.0,100,0.13,,,0.63,Wunderground v.1.15,2013-03-12 23:10:00,
2013-03-12 19:15:00,45.5,45.5,29.71,SSW,197,0.0,0.0,100,0.07,,,0.63,Wunderground v.1.15,2013-03-12 23:15:00,
2013-03-12 19:20:00,45.1,45.1,29.71,SSW,197,0.0,0.0,100,0.04,,,0.63,Wunderground v.1.15,2013-03-12 23:20:00,
2013-03-12 19:25:00,44.3,44.3,29.71,SSW,197,0.0,0.0,100,0.04,,,0.64,Wunderground v.1.15,2013-03-12 23:25:00,
2013-03-12 19:35:00,43.8,43.8,29.71,SSW,198,0.0,2.0,100,0.07,,,0.65,Wunderground v.1.15,2013-03-12 23:35:00,
2013-03-12 19:40:00,43.8,43.8,29.70,SSW,198,0.0,0.0,100,0.12,,,0.66,Wunderground v.1.15,2013-03-12 23:40:00,
2013-03-12 19:50:00,43.5,43.5,29.70,SSW,198,0.0,0.0,100,0.05,,,0.67,Wunderground v.1.15,2013-03-12 23:50:00,
2013-03-12 19:55:00,43.2,43.2,29.70,SSW,198,0.0,0.0,100,0.05,,,0.67,Wunderground v.1.15,2013-03-12 23:55:00,
2013-03-12 20:00:00,43.1,43.1,29.70,SSW,198,0.0,0.0,100,0.05,,,0.68,Wunderground v.1.15,2013-03-13 00:00:00,
2013-03-12 20:10:00,42.6,42.6,29.70,SSW,198,0.0,0.0,100,0.05,,,0.68,Wunderground v.1.15,2013-03-13 00:10:00,
2013-03-12 20:15:00,42.5,42.5,29.70,SSW,198,0.0,0.0,100,0.04,,,0.68,Wunderground v.1.15,2013-03-13 00:15:00,
2013-03-12 20:20:00,42.5,42.5,29.69,SSW,198,0.0,0.0,100,0.00,,,0.68,Wunderground v.1.15,2013-03-13 00:20:00,
2013-03-12 20:30:00,42.6,42.6,29.70,WSW,238,0.0,0.0,100,0.00,,,0.68,Wunderground v.1.15,2013-03-13 00:30:00,
2013-03-12 20:35:00,42.5,42.5,29.70,ESE,123,0.0,0.0,100,0.00,,,0.68,Wunderground v.1.15,2013-03-13 00:35:00,
2013-03-12 20:40:00,42.3,42.3,29.70,ESE,119,0.0,0.0,100,0.00,,,0.69,Wunderground v.1.15,2013-03-13 00:40:00,
2013-03-12 20:50:00,42.3,42.3,29.70,SW,227,0.0,0.0,100,0.00,,,0.69,Wunderground v.1.15,2013-03-13 00:50:00,
2013-03-12 20:55:00,42.5,42.5,29.70,SW,227,0.0,0.0,100,0.00,,,0.69,Wunderground v.1.15,2013-03-13 00:55:00,
2013-03-12 21:00:00,42.5,42.5,29.71,SW,227,0.0,0.0,100,0.00,,,0.70,Wunderground v.1.15,2013-03-13 01:00:00,
2013-03-12 21:10:00,42.5,42.5,29.71,SW,227,0.0,0.0,100,0.00,,,0.70,Wunderground v.1.15,2013-03-13 01:10:00,
2013-03-12 21:15:00,42.5,42.5,29.70,SW,227,0.0,2.0,100,0.00,,,0.70,Wunderground v.1.15,2013-03-13 01:15:00,
2013-03-12 21:20:00,42.5,42.5,29.71,SW,227,0.0,0.0,100,0.00,,,0.70,Wunderground v.1.15,2013-03-13 01:20:00,
2013-03-12 21:30:00,42.2,42.2,29.72,NNW,332,0.0,0.0,100,0.00,,,0.71,Wunderground v.1.15,2013-03-13 01:30:00,
2013-03-12 21:35:00,42.6,42.6,29.73,North,349,1.0,1.0,100,0.00,,,0.71,Wunderground v.1.15,2013-03-13 01:35:00,
2013-03-12 21:40:00,42.6,42.6,29.73,SW,225,1.0,1.0,100,0.00,,,0.71,Wunderground v.1.15,2013-03-13 01:40:00,
2013-03-12 21:50:00,42.1,42.1,29.74,SW,235,2.0,2.0,100,0.00,,,0.71,Wunderground v.1.15,2013-03-13 01:50:00,
2013-03-12 21:55:00,42.3,42.3,29.74,SE,143,2.0,2.0,100,0.00,,,0.71,Wunderground v.1.15,2013-03-13 01:55:00,
2013-03-12 22:00:00,42.3,42.3,29.75,South,178,1.0,1.0,100,0.00,,,0.71,Wunderground v.1.15,2013-03-13 02:00:00,
2013-03-12 22:10:00,41.9,41.9,29.75,South,179,1.0,1.0,100,0.00,,,0.71,Wunderground v.1.15,2013-03-13 02:10:00,
2013-03-12 22:15:00,41.6,41.6,29.76,South,179,1.0,1.0,100,0.00,,,0.71,Wunderground v.1.15,2013-03-13 02:15:00,
2013-03-12 22:20:00,41.1,41.1,29.76,SSE,161,0.0,0.0,100,0.00,,,0.71,Wunderground v.1.15,2013-03-13 02:20:00,
2013-03-12 22:30:00,40.8,40.8,29.77,South,189,0.0,0.0,100,0.00,,,0.71,Wunderground v.1.15,2013-03-13 02:30:00,
2013-03-12 22:35:00,40.6,40.6,29.77,South,189,0.0,0.0,100,0.00,,,0.71,Wunderground v.1.15,2013-03-13 02:35:00,
2013-03-12 22:40:00,40.3,40.3,29.77,SW,231,0.0,0.0,100,0.00,,,0.71,Wunderground v.1.15,2013-03-13 02:40:00,
2013-03-12 22:50:00,39.3,39.3,29.78,SW,231,0.0,0.0,100,0.00,,,0.71,Wunderground v.1.15,2013-03-13 02:50:00,
2013-03-12 22:55:00,39.5,39.5,29.78,SW,231,0.0,0.0,100,0.00,,,0.71,Wunderground v.1.15,2013-03-13 02:55:00,
2013-03-12 23:00:00,39.3,39.3,29.79,SW,231,0.0,1.0,100,0.00,,,0.71,Wunderground v.1.15,2013-03-13 03:00:00,
2013-03-12 23:10:00,39.5,39.5,29.79,SW,215,0.0,0.0,100,0.00,,,0.71,Wunderground v.1.15,2013-03-13 03:10:00,
2013-03-12 23:15:00,39.8,39.8,29.80,SW,215,0.0,0.0,100,0.00,,,0.71,Wunderground v.1.15,2013-03-13 03:15:00,
2013-03-12 23:20:00,40.2,40.2,29.79,SW,215,0.0,1.0,100,0.00,,,0.71,Wunderground v.1.15,2013-03-13 03:20:00,
2013-03-12 23:30:00,39.8,39.8,29.80,SSE,154,1.0,1.0,100,0.00,,,0.71,Wunderground v.1.15,2013-03-13 03:30:00,
2013-03-12 23:35:00,39.6,39.6,29.80,SSW,203,0.0,1.0,100,0.00,,,0.71,Wunderground v.1.15,2013-03-13 03:35:00,
2013-03-12 23:40:00,39.6,39.6,29.80,North,355,1.0,1.0,100,0.00,,,0.71,Wunderground v.1.15,2013-03-13 03:40:00,
2013-03-12 23:50:00,39.2,39.2,29.80,SSW,209,0.0,1.0,100,0.00,,,0.71,Wunderground v.1.15,2013-03-13 03:50:00,
2013-03-12 23:55:00,39.1,39.1,29.80,SSW,209,1.0,1.0,100,0.00,,,0.71,Wunderground v.1.15,2013-03-13 03:55:00,